»·PEaware :: N149CD KVNY-KWJF

N149CD :: KVNY-KWJF

FLIGHT INFORMATION

Flight Status: Arrived
Operator: Privately registered:
United States
More flights under this callsign
Pilot: Nathan E. (30132)
Aircraft: CESSNA 172 SKYHAWK
(C172)
More flights by this aircraft type
Origin: KVNY Van Nuys
United States
Destination: KWJF Gen Fox
United States
More flights between these airports :: More routes between these airports
Route: NUAL1 PMD
File this flight plan on PilotEdge
Remarks:
Altitude:
(Current/Filed)
7,000ft
Speed:
(Current/Filed)
110kts
Departed: 03-Dec-20 04:02 PM
Arrived: 03-Dec-20 04:33 PM
Distance/Time
Traveled:
35nm/0:31
Distance/Time
To Go:
Arrived

Flight Plot

Page will automatically refresh every two minutes.

Flight plan parsing failed; only flown route is shown


Map Options




Map Legend


Flown Route
Filed Route
Departure Airport
Arrival Airport
Navaid (VOR, NDB)
Fix

Horizontal Profiles

Position Reports

Time Latitude Longitude Heading Altitude Ground
Speed
03-Dec-20 15:42 34.208083 -118.491766 91 806ft 0kts
03-Dec-20 15:43 34.208083 -118.491766 91 806ft 0kts
03-Dec-20 15:44 34.208083 -118.491766 90 806ft 0kts
03-Dec-20 15:45 34.208083 -118.491766 90 806ft 0kts
03-Dec-20 15:46 34.208083 -118.491766 90 806ft 0kts
03-Dec-20 15:47 34.208083 -118.491766 90 806ft 0kts
03-Dec-20 15:48 34.208083 -118.491766 90 806ft 0kts
03-Dec-20 15:49 34.208083 -118.491766 90 806ft 0kts
03-Dec-20 15:50 34.208083 -118.491766 90 806ft 0kts
03-Dec-20 15:51 34.208083 -118.491766 90 806ft 0kts
03-Dec-20 15:52 34.208083 -118.491766 90 806ft 0kts
03-Dec-20 15:53 34.208083 -118.491766 90 806ft 0kts
03-Dec-20 15:54 34.208083 -118.491766 90 806ft 0kts
03-Dec-20 15:55 34.204176 -118.491012 175 806ft 17kts
03-Dec-20 15:56 34.199007 -118.490192 175 806ft 23kts
03-Dec-20 15:57 34.196602 -118.489960 2 806ft 0kts
03-Dec-20 15:58 34.196601 -118.489960 2 806ft 0kts
03-Dec-20 15:59 34.196655 -118.489957 353 806ft 5kts
03-Dec-20 16:00 34.197688 -118.489237 356 806ft 17kts
03-Dec-20 16:01 34.216096 -118.490179 357 1338ft 75kts
03-Dec-20 16:02 34.234586 -118.497397 278 2198ft 77kts
03-Dec-20 16:03 34.233243 -118.523470 264 3043ft 78kts
03-Dec-20 16:04 34.231404 -118.549814 265 3842ft 79kts
03-Dec-20 16:05 34.229541 -118.576567 265 4602ft 80kts
03-Dec-20 16:06 34.231314 -118.602409 325 5313ft 81kts
03-Dec-20 16:07 34.247127 -118.588685 48 5982ft 82kts
03-Dec-20 16:08 34.262185 -118.568314 48 6610ft 83kts
03-Dec-20 16:09 34.278497 -118.546172 48 7006ft 105kts
03-Dec-20 16:10 34.299569 -118.517507 48 7000ft 116kts
03-Dec-20 16:11 34.320881 -118.488548 48 7000ft 116kts
03-Dec-20 16:12 34.342477 -118.459177 48 7000ft 117kts
03-Dec-20 16:13 34.367196 -118.436273 3 7001ft 116kts
03-Dec-20 16:14 34.399512 -118.434863 1 6999ft 116kts
03-Dec-20 16:15 34.431948 -118.433556 1 7000ft 116kts
03-Dec-20 16:16 34.464298 -118.432248 1 6999ft 116kts
03-Dec-20 16:17 34.496519 -118.430941 1 6999ft 116kts
03-Dec-20 16:18 34.528724 -118.431334 337 7000ft 116kts
03-Dec-20 16:19 34.557298 -118.449404 332 6999ft 116kts
03-Dec-20 16:20 34.585894 -118.467917 332 7000ft 116kts
03-Dec-20 16:21 34.616969 -118.476050 356 7000ft 116kts
03-Dec-20 16:22 34.649207 -118.478383 356 7000ft 116kts
03-Dec-20 16:23 34.675106 -118.462400 65 6550ft 114kts
03-Dec-20 16:24 34.685772 -118.424781 72 5749ft 119kts
03-Dec-20 16:25 34.695629 -118.388141 72 5084ft 110kts
03-Dec-20 16:26 34.702690 -118.361873 72 4626ft 109kts
03-Dec-20 16:27 34.703841 -118.357591 72 4552ft 110kts
03-Dec-20 16:28 34.713434 -118.321838 72 3933ft 110kts
03-Dec-20 16:29 34.722916 -118.286455 72 3338ft 107kts
03-Dec-20 16:30 34.731182 -118.255544 72 2827ft 80kts
03-Dec-20 16:31 34.737573 -118.231304 69 2551ft 69kts
03-Dec-20 16:32 34.740622 -118.218563 99 2343ft 0kts
03-Dec-20 16:33 34.740303 -118.217780 73 2343ft 13kts
03-Dec-20 16:34 34.739875 -118.215607 251 2341ft 0kts
03-Dec-20 16:35 34.739875 -118.215607 251 2341ft 0kts
03-Dec-20 16:36 34.739875 -118.215607 251 2341ft 0kts

Navigation Log

Ident Type
Flight plan parsing failed, navigation log unavailable